Clinton, WA

04:16 PST le 25 janvier 2015 (GMT -0800)
Brighton Beach Randall Point | Change Station
CLOSE
Current Station
Stations météorologiques personnelles
Location: Clinton, WA
Altitude: 16 ft
Stations météo à proximité

Alt. 16 ft 47.98 °N, 122.35 °W | Updated 7 minutes ago

Couvert
Couvert
51.3 ° F
Paraît 51.3 ° F
N
0.0
Vent Variable Vent de Ouest

Aujourd'hui
Haut(e) -- | Bas -- ° F
--% Risque de précip.
Hier
Haut(e) -- | Bas -- ° F
Precip. -- pouce
7:45 AM 4:58 PM
Lune montante, 31% visible
Pression 30.21 pouce
Visibilité 10.0 Miles terrestres
Nuages Nuages épars 900 ft
Couvert 1400 ft
Point de rosée 51 ° F
Humidité 99%
Précipitations 0.00 pouce
Profondeur de la couche neigeuse Non disponible.
UV 0 sur 12
Pollen .70 sur 12
Qualité de l'air Non disponible.
Flu Activity Non disponible.
SPECI KPAE 251202Z AUTO 17007KT 10SM SCT009 OVC014 12/11 A3021 RMK AO2 T01220106

More Conditions Fewer Conditions

Pression 30.21 pouce
Visibilité 10.0 Miles terrestres
Nuages Nuages épars 900 ft
Couvert 1400 ft
Point de rosée 51 ° F
Humidité 99%
Précipitations 0.00 pouce
Profondeur de la couche neigeuse Non disponible.
UV 0 sur 12
Pollen .70 sur 12
Qualité de l'air Non disponible.
Flu Activity Non disponible.
SPECI KPAE 251202Z AUTO 17007KT 10SM SCT009 OVC014 12/11 A3021 RMK AO2 T01220106

More Conditions Fewer Conditions

10-Day Weather Forecast

Almanac

Astronomie

Jan. 25, 2015 Lever Coucher
Temps réel
Crépuscule civil
Crépuscule nautique
Crépuscule astronomique
Lune
Durée de lumière visible
Longueur du jour
Tomorrow will be .
, % of the Moon is Illuminated

Extrêmes aujourd'hui

State Highs State Lows

Community

WunderPhotos

Upload Photos

1,789,873 Photos téléchargées !

WunderBlogs® & News

Nearby

Qualité de l'air

  Qualité de l'air Indice de la qualité de l'air Polluant
Not available.

Épaisseur de neige

Station Depth Altitude

Activité sismique

Ville Distance Mag. Time & Date
Minimum magnitude displayed is 2.5.

Températures des eaux côtières

Lieu Température

Stations météo à proximité